Time;durP1;ratioP1;P1;durP2;ratioP2;P2;SDS_P1;SDS_P2;PMS_P1;PMS_P2;Temp;Humidity;BMP_temperature;BMP_pressure;BME280_temperature;BME280_humidity;BME280_pressure;Samples;Min_cycle;Max_cycle;Signal;HPM_P1;HPM_P2
2021/09/12 00:00:12;;;;;;;9.45;5.40;;;;;;;;;;5013513;28;20622;-50
2021/09/12 00:02:46;;;;;;;9.02;4.95;;;;;;;;;;5013267;28;20080;-51
2021/09/12 00:05:14;;;;;;;4.38;3.97;;;;;;;;;;5012943;28;20147;-50
2021/09/12 00:07:39;;;;;;;6.55;4.88;;;;;;;;;;5010692;28;20030;-47
2021/09/12 00:10:05;;;;;;;12.55;5.88;;;;;;;;;;5008614;28;20029;-47
2021/09/12 00:12:31;;;;;;;6.85;5.43;;;;;;;;;;5013485;28;20773;-51
2021/09/12 00:14:56;;;;;;;7.93;5.22;;;;;;;;;;5015525;28;20075;-51
2021/09/12 00:17:21;;;;;;;4.15;3.30;;;;;;;;;;5021322;28;20079;-49
2021/09/12 00:19:46;;;;;;;10.63;5.00;;;;;;;;;;5015517;28;20071;-47
2021/09/12 00:22:12;;;;;;;9.07;7.53;;;;;;;;;;5009239;28;20405;-49
2021/09/12 00:24:37;;;;;;;6.70;5.47;;;;;;;;;;5013883;28;20064;-50
2021/09/12 00:27:02;;;;;;;6.45;5.28;;;;;;;;;;5014748;28;20301;-49
2021/09/12 00:29:28;;;;;;;6.78;6.03;;;;;;;;;;5002522;28;20065;-47
2021/09/12 00:31:53;;;;;;;11.50;6.68;;;;;;;;;;5013842;28;20018;-47
2021/09/12 00:34:18;;;;;;;7.80;7.03;;;;;;;;;;5013897;28;20026;-46
2021/09/12 00:36:44;;;;;;;9.10;7.32;;;;;;;;;;5015503;28;20025;-46
2021/09/12 00:39:10;;;;;;;7.35;5.38;;;;;;;;;;5020386;28;20839;-45
2021/09/12 00:41:42;;;;;;;8.18;6.35;;;;;;;;;;5016984;28;20497;-47
2021/09/12 00:44:12;;;;;;;7.15;6.50;;;;;;;;;;5015998;28;20064;-46
2021/09/12 00:46:44;;;;;;;7.90;5.70;;;;;;;;;;5010910;28;20685;-46
2021/09/12 00:49:10;;;;;;;5.65;5.07;;;;;;;;;;5015487;28;20037;-46
2021/09/12 00:51:36;;;;;;;5.05;4.57;;;;;;;;;;5012760;28;20022;-46
2021/09/12 00:54:03;;;;;;;5.45;4.95;;;;;;;;;;5015161;28;20017;-45
2021/09/12 00:56:29;;;;;;;7.97;6.43;;;;;;;;;;5014271;28;20053;-49
2021/09/12 00:58:56;;;;;;;10.30;5.18;;;;;;;;;;5012875;28;20516;-47
2021/09/12 01:01:21;;;;;;;5.43;3.85;;;;;;;;;;5010814;28;20024;-47
2021/09/12 01:03:47;;;;;;;5.72;4.47;;;;;;;;;;5006043;28;20077;-45
2021/09/12 01:06:12;;;;;;;7.93;4.07;;;;;;;;;;5016241;28;20044;-49
2021/09/12 01:08:39;;;;;;;6.68;4.68;;;;;;;;;;5015768;28;20137;-47
2021/09/12 01:11:04;;;;;;;7.07;4.05;;;;;;;;;;5012250;28;20132;-50
2021/09/12 01:13:29;;;;;;;11.88;3.80;;;;;;;;;;5018487;28;20541;-48
2021/09/12 01:15:54;;;;;;;10.23;4.38;;;;;;;;;;5017940;28;20017;-46
2021/09/12 01:18:20;;;;;;;5.22;3.67;;;;;;;;;;5012593;28;20481;-46
2021/09/12 01:20:45;;;;;;;3.95;3.08;;;;;;;;;;5015725;28;20026;-47
2021/09/12 01:23:10;;;;;;;2.90;2.00;;;;;;;;;;5016104;28;20512;-48
2021/09/12 01:25:36;;;;;;;12.50;3.55;;;;;;;;;;5011306;28;20030;-50
2021/09/12 01:28:05;;;;;;;3.13;2.35;;;;;;;;;;5020997;28;20547;-46
2021/09/12 01:30:30;;;;;;;6.22;2.55;;;;;;;;;;5020176;28;20022;-50
2021/09/12 01:32:58;;;;;;;2.22;1.95;;;;;;;;;;5015708;28;20032;-49
2021/09/12 01:35:23;;;;;;;3.05;1.40;;;;;;;;;;5020322;28;20049;-49
2021/09/12 01:37:48;;;;;;;8.65;2.63;;;;;;;;;;5011644;28;20049;-47
2021/09/12 01:40:14;;;;;;;2.47;1.65;;;;;;;;;;5014169;28;20786;-47
2021/09/12 01:42:39;;;;;;;2.42;1.85;;;;;;;;;;5014713;28;20492;-47
2021/09/12 01:45:04;;;;;;;4.45;2.47;;;;;;;;;;5018158;28;20033;-51
2021/09/12 01:47:30;;;;;;;6.30;3.10;;;;;;;;;;5017983;28;20068;-46
2021/09/12 01:49:55;;;;;;;2.38;1.98;;;;;;;;;;5018125;28;20022;-48
2021/09/12 01:52:21;;;;;;;7.15;2.15;;;;;;;;;;5020703;28;20075;-47
2021/09/12 01:54:46;;;;;;;4.35;3.15;;;;;;;;;;5017704;28;20158;-46
2021/09/12 01:57:11;;;;;;;6.65;2.72;;;;;;;;;;5017763;28;20037;-47
2021/09/12 01:59:37;;;;;;;3.53;2.22;;;;;;;;;;5015238;28;20026;-48
2021/09/12 02:02:02;;;;;;;2.63;2.22;;;;;;;;;;5012303;28;20022;-49
2021/09/12 02:04:27;;;;;;;3.13;1.98;;;;;;;;;;5018297;28;20500;-50
2021/09/12 02:06:53;;;;;;;6.40;2.67;;;;;;;;;;5017285;28;20062;-49
2021/09/12 02:09:18;;;;;;;6.22;2.25;;;;;;;;;;5014527;28;20493;-46
2021/09/12 02:11:43;;;;;;;7.07;3.17;;;;;;;;;;5018013;28;20124;-50
2021/09/12 02:14:08;;;;;;;2.88;2.10;;;;;;;;;;5014652;28;20010;-48
2021/09/12 02:16:34;;;;;;;1.98;1.23;;;;;;;;;;5017630;28;20103;-51
2021/09/12 02:18:59;;;;;;;3.38;2.10;;;;;;;;;;5021055;28;20236;-51
2021/09/12 02:21:24;;;;;;;2.90;1.77;;;;;;;;;;5020304;28;20022;-49
2021/09/12 02:23:50;;;;;;;2.83;2.00;;;;;;;;;;5019408;28;20118;-52
2021/09/12 02:26:15;;;;;;;2.97;2.22;;;;;;;;;;5018859;28;20033;-49
2021/09/12 02:28:40;;;;;;;2.95;2.30;;;;;;;;;;5011114;28;20029;-50
2021/09/12 02:31:06;;;;;;;3.25;2.35;;;;;;;;;;5014060;28;20101;-51
2021/09/12 02:33:34;;;;;;;2.70;1.77;;;;;;;;;;5011709;28;20524;-49
2021/09/12 02:36:01;;;;;;;3.30;2.22;;;;;;;;;;5010524;28;20025;-52
2021/09/12 02:38:27;;;;;;;4.45;1.88;;;;;;;;;;5015657;28;20420;-50
2021/09/12 02:40:52;;;;;;;4.22;2.58;;;;;;;;;;5013265;28;20105;-49
2021/09/12 02:43:17;;;;;;;3.00;1.83;;;;;;;;;;5020733;28;20487;-47
2021/09/12 02:45:43;;;;;;;3.10;1.27;;;;;;;;;;5022674;28;20021;-51
2021/09/12 02:48:08;;;;;;;4.05;1.80;;;;;;;;;;5019885;28;20477;-50
2021/09/12 02:50:33;;;;;;;3.50;2.40;;;;;;;;;;5020672;28;20528;-48
2021/09/12 02:52:59;;;;;;;6.45;2.03;;;;;;;;;;5017997;28;20164;-49
2021/09/12 02:55:24;;;;;;;5.10;2.63;;;;;;;;;;5019343;28;20095;-50
2021/09/12 02:57:49;;;;;;;4.78;2.15;;;;;;;;;;5009727;28;20021;-49
2021/09/12 03:00:15;;;;;;;1.58;1.20;;;;;;;;;;5018629;28;20052;-52
2021/09/12 03:02:40;;;;;;;7.40;1.23;;;;;;;;;;5016243;28;20056;-49
2021/09/12 03:05:06;;;;;;;8.50;1.98;;;;;;;;;;5016359;28;20072;-50
2021/09/12 03:07:31;;;;;;;5.18;1.55;;;;;;;;;;5018216;28;20025;-48
2021/09/12 03:09:56;;;;;;;1.88;1.23;;;;;;;;;;5016130;28;20021;-50
2021/09/12 03:12:21;;;;;;;2.80;1.70;;;;;;;;;;5008812;28;20021;-50
2021/09/12 03:14:47;;;;;;;4.75;2.60;;;;;;;;;;5016199;28;20033;-46
2021/09/12 03:17:12;;;;;;;4.38;2.65;;;;;;;;;;5015665;28;20032;-46
2021/09/12 03:19:38;;;;;;;5.80;3.00;;;;;;;;;;5014576;28;20034;-47
2021/09/12 03:22:04;;;;;;;5.50;1.70;;;;;;;;;;5016408;28;20204;-52
2021/09/12 03:24:29;;;;;;;4.28;1.95;;;;;;;;;;5016281;28;20116;-47
2021/09/12 03:26:55;;;;;;;5.20;4.70;;;;;;;;;;5016393;28;20025;-50
2021/09/12 03:29:20;;;;;;;3.28;2.58;;;;;;;;;;5020592;28;20075;-47
2021/09/12 03:31:45;;;;;;;10.65;1.88;;;;;;;;;;5016379;28;20048;-48
2021/09/12 03:34:11;;;;;;;1.40;0.95;;;;;;;;;;5013154;28;20555;-45
2021/09/12 03:36:36;;;;;;;1.58;1.00;;;;;;;;;;5017142;28;20607;-48
2021/09/12 03:39:01;;;;;;;1.83;1.00;;;;;;;;;;5016172;28;20026;-48
2021/09/12 03:41:27;;;;;;;5.60;1.15;;;;;;;;;;5010476;28;20517;-47
2021/09/12 03:43:52;;;;;;;2.22;1.70;;;;;;;;;;5013213;28;20477;-48
2021/09/12 03:46:17;;;;;;;5.32;2.20;;;;;;;;;;5017140;28;20045;-47
2021/09/12 03:48:43;;;;;;;4.75;2.58;;;;;;;;;;5007084;28;20126;-46
2021/09/12 03:51:08;;;;;;;3.00;1.77;;;;;;;;;;5022055;28;20067;-51
2021/09/12 03:53:33;;;;;;;3.67;2.60;;;;;;;;;;5016577;28;20034;-47
2021/09/12 03:55:59;;;;;;;4.13;2.17;;;;;;;;;;5017786;28;20363;-49
2021/09/12 03:58:24;;;;;;;2.78;1.65;;;;;;;;;;5012359;28;20478;-47
2021/09/12 04:00:49;;;;;;;2.15;1.80;;;;;;;;;;5013991;28;20025;-46
2021/09/12 04:03:15;;;;;;;2.42;1.33;;;;;;;;;;5014832;28;20480;-50
2021/09/12 04:05:40;;;;;;;3.03;1.85;;;;;;;;;;5015957;28;20085;-48
2021/09/12 04:08:05;;;;;;;2.85;1.80;;;;;;;;;;5013013;28;20080;-49
2021/09/12 04:10:31;;;;;;;9.98;2.65;;;;;;;;;;5015996;28;20026;-46
2021/09/12 04:12:56;;;;;;;3.33;1.90;;;;;;;;;;5009570;28;20037;-45
2021/09/12 04:15:21;;;;;;;5.95;2.08;;;;;;;;;;5013625;28;20143;-49
2021/09/12 04:17:46;;;;;;;4.07;2.05;;;;;;;;;;5016085;28;20076;-46
2021/09/12 04:20:12;;;;;;;2.10;1.48;;;;;;;;;;5012061;28;20115;-46
2021/09/12 04:22:37;;;;;;;3.60;2.00;;;;;;;;;;5014412;28;20672;-47
2021/09/12 04:25:03;;;;;;;4.90;2.58;;;;;;;;;;5010703;28;20025;-49
2021/09/12 04:27:28;;;;;;;2.45;1.90;;;;;;;;;;5019017;28;20405;-45
2021/09/12 04:29:53;;;;;;;2.97;1.73;;;;;;;;;;5013693;28;20116;-45
2021/09/12 04:32:19;;;;;;;1.67;1.40;;;;;;;;;;5012709;28;20028;-48
2021/09/12 04:34:47;;;;;;;3.28;2.00;;;;;;;;;;5018264;28;20086;-47
2021/09/12 04:37:12;;;;;;;2.33;1.23;;;;;;;;;;5014139;28;20131;-44
2021/09/12 04:39:37;;;;;;;2.45;1.70;;;;;;;;;;5014867;28;20039;-47
2021/09/12 04:42:03;;;;;;;3.60;2.05;;;;;;;;;;5009649;28;20022;-45
2021/09/12 04:44:28;;;;;;;6.05;1.95;;;;;;;;;;5014032;28;20425;-48
2021/09/12 04:46:54;;;;;;;3.20;2.00;;;;;;;;;;5000827;28;20057;-48
2021/09/12 04:49:19;;;;;;;2.30;1.40;;;;;;;;;;5016495;28;20508;-47
2021/09/12 04:51:44;;;;;;;1.92;1.27;;;;;;;;;;5016513;28;20028;-49
2021/09/12 04:54:10;;;;;;;3.08;2.15;;;;;;;;;;5016847;28;20018;-47
2021/09/12 04:56:35;;;;;;;3.83;1.63;;;;;;;;;;5017080;28;20022;-47
2021/09/12 04:59:00;;;;;;;5.43;2.05;;;;;;;;;;5015342;28;20776;-45
2021/09/12 05:01:25;;;;;;;6.25;1.92;;;;;;;;;;5013865;28;20033;-50
2021/09/12 05:03:52;;;;;;;2.42;1.70;;;;;;;;;;5011776;28;20128;-50
2021/09/12 05:06:17;;;;;;;3.45;2.03;;;;;;;;;;5005719;28;20084;-45
2021/09/12 05:08:42;;;;;;;3.85;1.60;;;;;;;;;;5008331;28;20077;-45
2021/09/12 05:11:08;;;;;;;6.25;2.33;;;;;;;;;;5014951;28;20507;-45
2021/09/12 05:13:35;;;;;;;2.33;1.67;;;;;;;;;;5014245;28;20515;-48
2021/09/12 05:16:00;;;;;;;1.83;1.40;;;;;;;;;;5011548;28;20117;-48
2021/09/12 05:18:25;;;;;;;5.10;2.97;;;;;;;;;;5018804;28;20132;-48
2021/09/12 05:20:51;;;;;;;3.85;1.83;;;;;;;;;;5014466;28;20017;-49
2021/09/12 05:23:16;;;;;;;4.38;2.40;;;;;;;;;;5015942;28;20025;-45
2021/09/12 05:25:41;;;;;;;3.90;1.83;;;;;;;;;;5016612;28;20029;-47
2021/09/12 05:28:07;;;;;;;2.80;2.45;;;;;;;;;;5007902;28;20083;-49
2021/09/12 05:30:32;;;;;;;6.75;2.92;;;;;;;;;;5012484;28;20018;-47
2021/09/12 05:32:57;;;;;;;4.38;2.33;;;;;;;;;;5015002;28;20034;-46
2021/09/12 05:35:22;;;;;;;2.47;1.70;;;;;;;;;;5013674;28;20050;-45
2021/09/12 05:37:48;;;;;;;3.75;1.85;;;;;;;;;;5008951;28;20025;-46
2021/09/12 05:40:13;;;;;;;3.30;2.60;;;;;;;;;;5009968;28;20026;-48
2021/09/12 05:42:39;;;;;;;5.60;2.47;;;;;;;;;;5009945;28;20034;-45
2021/09/12 05:45:05;;;;;;;4.55;2.17;;;;;;;;;;5008970;28;20041;-45
2021/09/12 05:47:30;;;;;;;6.03;3.67;;;;;;;;;;5013195;28;20037;-47
2021/09/12 05:49:55;;;;;;;5.95;4.55;;;;;;;;;;5009778;28;20421;-50
2021/09/12 05:52:21;;;;;;;13.73;5.00;;;;;;;;;;5009571;28;20028;-45
2021/09/12 05:54:46;;;;;;;9.77;8.88;;;;;;;;;;5015215;28;20035;-48
2021/09/12 05:57:11;;;;;;;6.10;5.47;;;;;;;;;;5013737;28;20029;-48
2021/09/12 05:59:36;;;;;;;8.93;3.53;;;;;;;;;;5017464;28;20558;-46
2021/09/12 06:02:02;;;;;;;4.22;3.08;;;;;;;;;;5013892;28;20060;-50
2021/09/12 06:04:27;;;;;;;7.70;3.80;;;;;;;;;;5015054;28;20069;-46
2021/09/12 06:06:53;;;;;;;4.72;3.13;;;;;;;;;;5016961;28;20079;-48
2021/09/12 06:09:18;;;;;;;9.43;3.70;;;;;;;;;;5016260;28;20085;-48
2021/09/12 06:11:43;;;;;;;6.35;3.40;;;;;;;;;;5010420;28;20030;-46
2021/09/12 06:14:09;;;;;;;5.13;2.92;;;;;;;;;;5020624;28;20014;-48
2021/09/12 06:16:34;;;;;;;6.32;4.43;;;;;;;;;;5020229;28;20022;-47
2021/09/12 06:18:59;;;;;;;13.70;3.30;;;;;;;;;;5015424;28;20022;-47
2021/09/12 06:21:25;;;;;;;6.13;3.72;;;;;;;;;;5015778;28;20018;-50
2021/09/12 06:23:50;;;;;;;3.85;2.47;;;;;;;;;;5014610;28;20548;-48
2021/09/12 06:26:15;;;;;;;7.43;2.72;;;;;;;;;;5018022;28;20480;-47
2021/09/12 06:28:41;;;;;;;4.95;3.40;;;;;;;;;;5018450;28;20030;-47
2021/09/12 06:31:06;;;;;;;5.80;3.17;;;;;;;;;;5015883;28;20032;-48
2021/09/12 06:33:32;;;;;;;5.65;4.15;;;;;;;;;;5017087;28;20021;-49
2021/09/12 06:35:57;;;;;;;7.90;6.30;;;;;;;;;;5017446;28;20113;-50
2021/09/12 06:38:22;;;;;;;16.95;5.55;;;;;;;;;;5015584;28;20058;-50
2021/09/12 06:40:48;;;;;;;6.78;5.18;;;;;;;;;;5012962;28;20032;-48
2021/09/12 06:43:13;;;;;;;13.90;9.85;;;;;;;;;;5013094;28;20584;-46
2021/09/12 06:45:39;;;;;;;14.32;8.90;;;;;;;;;;5013277;28;20034;-48
2021/09/12 06:48:04;;;;;;;21.10;11.98;;;;;;;;;;5007580;28;20030;-47
2021/09/12 06:50:29;;;;;;;9.02;8.15;;;;;;;;;;5012790;28;20922;-50
2021/09/12 06:52:55;;;;;;;7.88;6.90;;;;;;;;;;5011384;28;20034;-47
2021/09/12 06:55:20;;;;;;;7.90;6.05;;;;;;;;;;5020900;28;20032;-52
2021/09/12 06:57:46;;;;;;;6.20;5.57;;;;;;;;;;5019634;28;20037;-51
2021/09/12 07:00:11;;;;;;;18.23;16.25;;;;;;;;;;5019012;28;20029;-49
2021/09/12 07:02:37;;;;;;;31.10;19.05;;;;;;;;;;5009852;28;20707;-46
2021/09/12 07:05:03;;;;;;;14.45;13.00;;;;;;;;;;5017658;28;20053;-49
2021/09/12 07:07:29;;;;;;;24.25;20.27;;;;;;;;;;5019630;28;20037;-55
2021/09/12 07:09:54;;;;;;;23.08;19.88;;;;;;;;;;5011119;28;20363;-52
2021/09/12 07:12:19;;;;;;;37.63;26.58;;;;;;;;;;5010321;28;20217;-53
2021/09/12 07:14:44;;;;;;;25.95;13.93;;;;;;;;;;5017250;28;20103;-56
2021/09/12 07:17:10;;;;;;;17.10;9.05;;;;;;;;;;5016117;28;20025;-60
2021/09/12 07:19:35;;;;;;;15.55;8.02;;;;;;;;;;5018854;28;20025;-61
2021/09/12 07:22:01;;;;;;;7.15;5.55;;;;;;;;;;5012301;28;20677;-59
2021/09/12 07:24:28;;;;;;;9.85;5.53;;;;;;;;;;5012614;28;20075;-65
2021/09/12 07:26:54;;;;;;;8.90;5.75;;;;;;;;;;5018430;28;20030;-59
2021/09/12 07:29:19;;;;;;;8.27;6.30;;;;;;;;;;5024147;28;20040;-64
2021/09/12 07:31:44;;;;;;;37.28;19.50;;;;;;;;;;5012944;28;20506;-60
2021/09/12 07:34:10;;;;;;;31.38;23.88;;;;;;;;;;5013265;28;20017;-62
2021/09/12 07:36:35;;;;;;;12.65;7.70;;;;;;;;;;5016618;28;20171;-60
2021/09/12 07:39:00;;;;;;;4.85;3.90;;;;;;;;;;5007340;28;20029;-58
2021/09/12 07:41:25;;;;;;;8.05;3.97;;;;;;;;;;5014515;28;20115;-52
2021/09/12 07:43:51;;;;;;;6.55;3.80;;;;;;;;;;5014580;28;20030;-62
2021/09/12 07:46:16;;;;;;;7.60;3.88;;;;;;;;;;5021603;28;20145;-60
2021/09/12 07:48:41;;;;;;;4.47;3.33;;;;;;;;;;5016745;28;20477;-59
2021/09/12 07:51:07;;;;;;;5.65;3.70;;;;;;;;;;5012291;28;20545;-60
2021/09/12 07:53:32;;;;;;;5.30;3.13;;;;;;;;;;5015682;28;20029;-61
2021/09/12 07:55:57;;;;;;;9.50;3.50;;;;;;;;;;5006304;28;20025;-56
2021/09/12 07:58:23;;;;;;;6.32;3.78;;;;;;;;;;5014413;28;20041;-57
2021/09/12 08:00:48;;;;;;;3.45;3.08;;;;;;;;;;5011788;28;20029;-54
2021/09/12 08:03:13;;;;;;;5.40;3.20;;;;;;;;;;5013234;28;20040;-58
2021/09/12 08:05:39;;;;;;;3.90;3.10;;;;;;;;;;5013331;28;20053;-55
2021/09/12 08:08:04;;;;;;;8.02;3.40;;;;;;;;;;5020583;28;20036;-61
2021/09/12 08:10:29;;;;;;;10.80;4.35;;;;;;;;;;5015086;28;20024;-58
2021/09/12 08:12:54;;;;;;;4.28;3.25;;;;;;;;;;5013964;28;20031;-60
2021/09/12 08:15:21;;;;;;;7.72;4.00;;;;;;;;;;5014632;28;20026;-58
2021/09/12 08:17:46;;;;;;;10.98;3.53;;;;;;;;;;5011193;28;20488;-55
2021/09/12 08:20:11;;;;;;;7.03;4.38;;;;;;;;;;5009325;28;20040;-61
2021/09/12 08:22:37;;;;;;;4.60;3.65;;;;;;;;;;5012398;28;20025;-59
2021/09/12 08:25:03;;;;;;;4.88;3.67;;;;;;;;;;5012484;28;20023;-55
2021/09/12 08:27:28;;;;;;;11.55;10.45;;;;;;;;;;5016021;28;20033;-57
2021/09/12 08:29:53;;;;;;;10.30;5.95;;;;;;;;;;5016881;28;20476;-58
2021/09/12 08:32:19;;;;;;;5.95;5.35;;;;;;;;;;5016089;28;20036;-58
2021/09/12 08:34:44;;;;;;;6.45;4.75;;;;;;;;;;5014889;28;20017;-58
2021/09/12 08:37:10;;;;;;;7.70;6.20;;;;;;;;;;5012873;28;20088;-59
2021/09/12 08:39:36;;;;;;;10.68;9.20;;;;;;;;;;5015450;28;20021;-59
2021/09/12 08:42:01;;;;;;;7.57;5.18;;;;;;;;;;5010827;28;20018;-58
2021/09/12 08:44:27;;;;;;;7.07;4.68;;;;;;;;;;5009307;28;20044;-58
2021/09/12 08:46:53;;;;;;;7.50;4.72;;;;;;;;;;5012546;28;20109;-58
2021/09/12 08:49:18;;;;;;;6.95;3.72;;;;;;;;;;5016351;28;20017;-58
2021/09/12 08:51:43;;;;;;;6.65;3.70;;;;;;;;;;5013774;28;20102;-58
2021/09/12 08:54:09;;;;;;;6.38;4.30;;;;;;;;;;5013630;28;20068;-58
2021/09/12 08:56:34;;;;;;;3.55;3.25;;;;;;;;;;5013134;28;20026;-58
2021/09/12 08:59:00;;;;;;;8.35;4.00;;;;;;;;;;5015821;28;20025;-58
2021/09/12 09:01:29;;;;;;;8.93;4.50;;;;;;;;;;5014292;28;20037;-58
2021/09/12 09:03:58;;;;;;;9.02;3.65;;;;;;;;;;5015950;28;20038;-58
2021/09/12 09:06:23;;;;;;;16.17;4.15;;;;;;;;;;5011079;28;20064;-58
2021/09/12 09:08:54;;;;;;;4.60;3.72;;;;;;;;;;5013066;28;20049;-58
2021/09/12 09:11:36;;;;;;;4.78;3.22;;;;;;;;;;5014058;28;20026;-58
2021/09/12 09:14:21;;;;;;;13.52;4.53;;;;;;;;;;5014081;28;20046;-58
2021/09/12 09:16:47;;;;;;;4.22;3.78;;;;;;;;;;5008129;28;20037;-58
2021/09/12 09:19:13;;;;;;;4.53;3.63;;;;;;;;;;5012480;28;20091;-58
2021/09/12 09:21:41;;;;;;;4.32;3.75;;;;;;;;;;5013688;28;20034;-58
2021/09/12 09:24:06;;;;;;;7.30;3.78;;;;;;;;;;5016504;28;20021;-58
2021/09/12 09:26:34;;;;;;;7.80;3.90;;;;;;;;;;5019916;28;20038;-56
2021/09/12 09:28:59;;;;;;;6.55;4.50;;;;;;;;;;5011010;28;20056;-57
2021/09/12 09:31:25;;;;;;;3.55;3.00;;;;;;;;;;5012128;28;20064;-58
2021/09/12 09:33:50;;;;;;;6.53;3.83;;;;;;;;;;5010239;28;20510;-58
2021/09/12 09:36:17;;;;;;;7.35;3.58;;;;;;;;;;5016416;28;20053;-58
2021/09/12 09:38:45;;;;;;;6.65;3.95;;;;;;;;;;5005234;28;20031;-57
2021/09/12 09:41:12;;;;;;;4.35;3.45;;;;;;;;;;5011853;28;20017;-57
2021/09/12 09:43:41;;;;;;;4.18;3.17;;;;;;;;;;5018511;28;20052;-59
2021/09/12 09:46:24;;;;;;;5.85;3.95;;;;;;;;;;5017996;28;20503;-57
2021/09/12 09:48:49;;;;;;;9.38;3.72;;;;;;;;;;5018138;28;20040;-58
2021/09/12 09:51:15;;;;;;;4.78;2.80;;;;;;;;;;5020717;28;20821;-55
2021/09/12 09:53:40;;;;;;;13.23;3.35;;;;;;;;;;5012510;28;20593;-57
2021/09/12 09:56:06;;;;;;;6.20;4.60;;;;;;;;;;5018524;28;20378;-56
2021/09/12 09:58:32;;;;;;;4.05;2.67;;;;;;;;;;5028745;28;20022;-58
2021/09/12 10:00:58;;;;;;;5.82;4.32;;;;;;;;;;5012971;28;20087;-58
2021/09/12 10:03:24;;;;;;;3.83;3.42;;;;;;;;;;5014600;28;20465;-57
2021/09/12 10:05:50;;;;;;;5.72;3.67;;;;;;;;;;5019445;28;20055;-55
2021/09/12 10:08:15;;;;;;;6.15;4.20;;;;;;;;;;5015309;28;20109;-56
2021/09/12 10:10:41;;;;;;;11.63;3.33;;;;;;;;;;5014669;28;20100;-50
2021/09/12 10:13:07;;;;;;;5.18;3.78;;;;;;;;;;5013831;28;20021;-54
2021/09/12 10:15:33;;;;;;;13.68;4.18;;;;;;;;;;5019706;28;20045;-54
2021/09/12 10:17:59;;;;;;;4.60;3.67;;;;;;;;;;5016560;28;20030;-53
2021/09/12 10:20:26;;;;;;;4.00;2.88;;;;;;;;;;5018935;28;20030;-55
2021/09/12 10:22:54;;;;;;;4.45;3.30;;;;;;;;;;5013974;28;20057;-54
2021/09/12 10:25:21;;;;;;;6.63;3.92;;;;;;;;;;5014714;28;20681;-54
2021/09/12 10:27:47;;;;;;;5.80;2.97;;;;;;;;;;5010512;28;20037;-55
2021/09/12 10:30:21;;;;;;;10.93;3.83;;;;;;;;;;5006831;28;20014;-54
2021/09/12 10:32:46;;;;;;;6.20;2.53;;;;;;;;;;5023096;28;20026;-56
2021/09/12 10:35:13;;;;;;;4.82;2.17;;;;;;;;;;5017846;28;20026;-55
2021/09/12 10:37:39;;;;;;;3.80;2.58;;;;;;;;;;5019382;28;20042;-56
2021/09/12 10:40:04;;;;;;;3.60;1.67;;;;;;;;;;5014940;28;20025;-57
2021/09/12 10:42:41;;;;;;;3.53;2.22;;;;;;;;;;5015006;28;20030;-55
2021/09/12 10:45:26;;;;;;;7.32;3.15;;;;;;;;;;5016434;28;20017;-56
2021/09/12 10:47:52;;;;;;;3.95;3.15;;;;;;;;;;5011762;28;20014;-56
2021/09/12 10:50:36;;;;;;;3.92;2.53;;;;;;;;;;5015101;28;20022;-56
2021/09/12 10:53:01;;;;;;;11.13;2.85;;;;;;;;;;5015566;28;20022;-57
2021/09/12 10:55:27;;;;;;;5.55;3.53;;;;;;;;;;5019472;28;20550;-55
2021/09/12 10:57:52;;;;;;;4.18;2.58;;;;;;;;;;5022078;28;20018;-53
2021/09/12 11:00:18;;;;;;;5.18;2.67;;;;;;;;;;5012511;28;20469;-56
2021/09/12 11:02:50;;;;;;;3.88;2.35;;;;;;;;;;5015621;28;20161;-53
2021/09/12 11:05:25;;;;;;;6.00;3.95;;;;;;;;;;5017663;28;20050;-54
2021/09/12 11:07:54;;;;;;;4.70;2.67;;;;;;;;;;5017343;28;20026;-51
2021/09/12 11:10:39;;;;;;;3.75;2.20;;;;;;;;;;5011291;28;20021;-51
2021/09/12 11:13:05;;;;;;;5.97;1.63;;;;;;;;;;5014192;28;20037;-52
2021/09/12 11:15:31;;;;;;;2.20;2.00;;;;;;;;;;5013910;28;20644;-52
2021/09/12 11:17:56;;;;;;;4.40;2.53;;;;;;;;;;5014355;28;20077;-51
2021/09/12 11:20:22;;;;;;;5.95;2.10;;;;;;;;;;5017324;28;20018;-52
2021/09/12 11:22:48;;;;;;;4.25;3.00;;;;;;;;;;5012984;28;20030;-54
2021/09/12 11:25:13;;;;;;;3.20;2.20;;;;;;;;;;5009545;28;20088;-52
2021/09/12 11:27:41;;;;;;;5.85;2.53;;;;;;;;;;5016702;28;20033;-55
2021/09/12 11:30:08;;;;;;;6.10;3.30;;;;;;;;;;5012206;28;20734;-52
2021/09/12 11:32:33;;;;;;;2.35;1.75;;;;;;;;;;5011414;28;20076;-55
2021/09/12 11:34:59;;;;;;;2.95;1.60;;;;;;;;;;5016320;28;20351;-53
2021/09/12 11:37:24;;;;;;;16.38;2.60;;;;;;;;;;5019152;28;20030;-51
2021/09/12 11:39:55;;;;;;;7.93;3.08;;;;;;;;;;5014456;28;20022;-54
2021/09/12 11:42:24;;;;;;;4.50;2.17;;;;;;;;;;5015359;28;20044;-54
2021/09/12 11:44:55;;;;;;;8.10;2.45;;;;;;;;;;5013405;28;20023;-53
2021/09/12 11:47:22;;;;;;;1.67;1.20;;;;;;;;;;5013724;28;20025;-53
2021/09/12 11:50:16;;;;;;;2.42;1.67;;;;;;;;;;5010385;28;20022;-52
2021/09/12 11:52:42;;;;;;;1.95;1.23;;;;;;;;;;5005915;28;20137;-54
2021/09/12 11:55:18;;;;;;;6.40;2.42;;;;;;;;;;5014335;28;20104;-53
2021/09/12 11:57:43;;;;;;;1.88;1.30;;;;;;;;;;5013184;28;20026;-54
2021/09/12 12:00:12;;;;;;;3.03;1.42;;;;;;;;;;5017318;28;20079;-55
2021/09/12 12:02:39;;;;;;;7.15;2.40;;;;;;;;;;5008911;28;20100;-54
2021/09/12 12:05:05;;;;;;;4.38;3.00;;;;;;;;;;5015332;28;20111;-51
2021/09/12 12:07:37;;;;;;;2.30;2.05;;;;;;;;;;5017754;28;20029;-54
2021/09/12 12:10:03;;;;;;;2.30;1.52;;;;;;;;;;5018456;28;20048;-54
2021/09/12 12:12:35;;;;;;;2.72;1.65;;;;;;;;;;5015972;28;20030;-55
2021/09/12 12:15:00;;;;;;;4.63;1.70;;;;;;;;;;5014698;28;20079;-52
2021/09/12 12:17:26;;;;;;;4.53;2.53;;;;;;;;;;5018326;28;20034;-52
2021/09/12 12:19:52;;;;;;;3.28;1.70;;;;;;;;;;5013920;28;20082;-53
2021/09/12 12:22:19;;;;;;;10.02;3.40;;;;;;;;;;5015564;28;20040;-54
2021/09/12 12:24:45;;;;;;;2.25;1.10;;;;;;;;;;5011778;28;20030;-55
2021/09/12 12:27:12;;;;;;;3.58;2.17;;;;;;;;;;5008935;28;20021;-54
2021/09/12 12:29:40;;;;;;;2.90;1.52;;;;;;;;;;5014643;28;20029;-53
2021/09/12 12:32:05;;;;;;;2.90;1.58;;;;;;;;;;5013374;28;20018;-55
2021/09/12 12:34:34;;;;;;;5.68;1.90;;;;;;;;;;5009878;28;20026;-55
2021/09/12 12:37:00;;;;;;;7.43;2.30;;;;;;;;;;5013718;28;20033;-54
2021/09/12 12:39:25;;;;;;;2.47;1.67;;;;;;;;;;5013488;28;20037;-52
2021/09/12 12:41:52;;;;;;;4.43;2.00;;;;;;;;;;5017943;28;20036;-55
2021/09/12 12:44:17;;;;;;;3.92;2.35;;;;;;;;;;5014111;28;20347;-54
2021/09/12 12:46:44;;;;;;;6.43;1.83;;;;;;;;;;5015557;28;20026;-53
2021/09/12 12:49:10;;;;;;;3.00;1.55;;;;;;;;;;5012542;28;20500;-55
2021/09/12 12:51:36;;;;;;;2.30;1.52;;;;;;;;;;5009547;28;20075;-55
2021/09/12 12:54:02;;;;;;;2.70;1.52;;;;;;;;;;5018703;28;20444;-55
2021/09/12 12:56:29;;;;;;;3.50;1.20;;;;;;;;;;5009169;28;20013;-57
2021/09/12 12:58:54;;;;;;;2.95;1.63;;;;;;;;;;5005541;28;20033;-54
2021/09/12 13:01:19;;;;;;;3.10;1.48;;;;;;;;;;5016386;28;20024;-56
2021/09/12 13:03:45;;;;;;;2.15;1.38;;;;;;;;;;5012471;28;20025;-55
2021/09/12 13:06:11;;;;;;;2.50;1.52;;;;;;;;;;5010739;28;20469;-56
2021/09/12 13:08:37;;;;;;;1.67;0.98;;;;;;;;;;5015434;28;20563;-56
2021/09/12 13:11:03;;;;;;;4.00;1.48;;;;;;;;;;5013596;28;20022;-55
2021/09/12 13:13:28;;;;;;;1.90;1.20;;;;;;;;;;5018336;28;20049;-55
2021/09/12 13:15:54;;;;;;;3.00;2.03;;;;;;;;;;5016311;28;20733;-56
2021/09/12 13:18:19;;;;;;;2.05;1.60;;;;;;;;;;5014408;28;20033;-54
2021/09/12 13:20:45;;;;;;;6.63;1.73;;;;;;;;;;5020496;28;20029;-56
2021/09/12 13:23:11;;;;;;;4.07;1.45;;;;;;;;;;5019504;28;20033;-56
2021/09/12 13:25:36;;;;;;;1.60;1.20;;;;;;;;;;5019066;28;20018;-55
2021/09/12 13:28:02;;;;;;;2.00;1.33;;;;;;;;;;5016357;28;20022;-57
2021/09/12 13:30:28;;;;;;;3.10;1.70;;;;;;;;;;5014439;28;20022;-56
2021/09/12 13:32:53;;;;;;;1.58;1.42;;;;;;;;;;5020258;28;20061;-55
2021/09/12 13:35:19;;;;;;;12.85;2.28;;;;;;;;;;5019670;28;20693;-53
2021/09/12 13:37:45;;;;;;;2.17;1.30;;;;;;;;;;5020527;28;20630;-55
2021/09/12 13:40:10;;;;;;;2.17;1.40;;;;;;;;;;5017465;28;20021;-56
2021/09/12 13:42:36;;;;;;;2.10;1.50;;;;;;;;;;5018884;28;20709;-56
2021/09/12 13:45:02;;;;;;;4.70;1.35;;;;;;;;;;5021680;28;20026;-56
2021/09/12 13:47:27;;;;;;;1.63;1.25;;;;;;;;;;5017286;28;20025;-56
2021/09/12 13:49:52;;;;;;;2.65;1.65;;;;;;;;;;5014552;28;20029;-56
2021/09/12 13:52:18;;;;;;;0.75;0.57;;;;;;;;;;5010196;28;20033;-56
2021/09/12 13:54:43;;;;;;;3.58;1.45;;;;;;;;;;5016543;28;20025;-54
2021/09/12 13:57:08;;;;;;;1.85;0.95;;;;;;;;;;5017532;28;20025;-55
2021/09/12 13:59:34;;;;;;;2.67;1.27;;;;;;;;;;5016363;28;20108;-56
2021/09/12 14:01:59;;;;;;;3.08;1.80;;;;;;;;;;5019387;28;20051;-55
2021/09/12 14:04:24;;;;;;;2.17;1.40;;;;;;;;;;5014925;28;20826;-55
2021/09/12 14:06:50;;;;;;;7.85;1.92;;;;;;;;;;5018326;28;20036;-56
2021/09/12 14:09:15;;;;;;;1.58;1.00;;;;;;;;;;5017564;28;20025;-55
2021/09/12 14:11:40;;;;;;;2.45;0.90;;;;;;;;;;5019615;28;20041;-55
2021/09/12 14:14:05;;;;;;;5.07;1.50;;;;;;;;;;5019192;28;20026;-55
2021/09/12 14:16:31;;;;;;;3.50;1.80;;;;;;;;;;5016887;28;20057;-55
2021/09/12 14:18:56;;;;;;;3.40;1.10;;;;;;;;;;5017138;28;20022;-56
2021/09/12 14:21:21;;;;;;;1.85;1.67;;;;;;;;;;5017823;28;20098;-54
2021/09/12 14:23:48;;;;;;;1.90;1.10;;;;;;;;;;5017944;28;20032;-55
2021/09/12 14:26:14;;;;;;;2.10;1.15;;;;;;;;;;5021278;28;20022;-56
2021/09/12 14:28:39;;;;;;;1.92;0.80;;;;;;;;;;5012789;28;20037;-55
2021/09/12 14:31:06;;;;;;;3.28;1.90;;;;;;;;;;5021130;28;20043;-56
2021/09/12 14:33:31;;;;;;;2.25;1.00;;;;;;;;;;5017128;28;20111;-55